sensor_id;sensor_type;location;lat;lon;timestamp;temperature;humidity
41058;DHT22;66768;48.884;2.258;2023-04-24T00:02:03;11.20;99.90
41058;DHT22;66768;48.884;2.258;2023-04-24T00:04:33;11.20;99.90
41058;DHT22;66768;48.884;2.258;2023-04-24T00:07:00;11.20;99.90
41058;DHT22;66768;48.884;2.258;2023-04-24T00:09:28;11.20;99.90
41058;DHT22;66768;48.884;2.258;2023-04-24T00:11:55;11.20;99.90
41058;DHT22;66768;48.884;2.258;2023-04-24T00:14:22;11.20;99.90
41058;DHT22;66768;48.884;2.258;2023-04-24T00:16:49;11.20;99.90
41058;DHT22;66768;48.884;2.258;2023-04-24T00:19:16;11.10;99.90
41058;DHT22;66768;48.884;2.258;2023-04-24T00:21:48;11.10;99.90
41058;DHT22;66768;48.884;2.258;2023-04-24T00:24:16;11.10;99.90
41058;DHT22;66768;48.884;2.258;2023-04-24T00:26:43;11.10;99.90
41058;DHT22;66768;48.884;2.258;2023-04-24T00:29:10;11.10;99.90
41058;DHT22;66768;48.884;2.258;2023-04-24T00:31:37;11.10;99.90
41058;DHT22;66768;48.884;2.258;2023-04-24T00:34:04;11.10;99.90
41058;DHT22;66768;48.884;2.258;2023-04-24T00:36:32;11.10;99.90
41058;DHT22;66768;48.884;2.258;2023-04-24T00:39:00;11.10;99.90
41058;DHT22;66768;48.884;2.258;2023-04-24T00:41:27;11.00;99.90
41058;DHT22;66768;48.884;2.258;2023-04-24T00:43:54;11.10;99.90
41058;DHT22;66768;48.884;2.258;2023-04-24T00:46:21;11.00;99.90
41058;DHT22;66768;48.884;2.258;2023-04-24T00:48:48;11.10;99.90
41058;DHT22;66768;48.884;2.258;2023-04-24T00:51:15;11.10;99.90
41058;DHT22;66768;48.884;2.258;2023-04-24T00:53:42;11.10;99.90
41058;DHT22;66768;48.884;2.258;2023-04-24T00:56:10;11.00;99.90
41058;DHT22;66768;48.884;2.258;2023-04-24T00:58:37;11.00;99.90
41058;DHT22;66768;48.884;2.258;2023-04-24T01:01:06;11.00;99.90
41058;DHT22;66768;48.884;2.258;2023-04-24T01:03:33;11.10;99.90
41058;DHT22;66768;48.884;2.258;2023-04-24T01:06:03;11.00;99.90
41058;DHT22;66768;48.884;2.258;2023-04-24T01:08:30;11.00;99.90
41058;DHT22;66768;48.884;2.258;2023-04-24T01:10:57;11.00;99.90
41058;DHT22;66768;48.884;2.258;2023-04-24T01:13:26;11.00;99.90
41058;DHT22;66768;48.884;2.258;2023-04-24T01:15:53;11.00;99.90
41058;DHT22;66768;48.884;2.258;2023-04-24T01:18:20;11.00;99.90
41058;DHT22;66768;48.884;2.258;2023-04-24T01:20:49;11.00;99.90
41058;DHT22;66768;48.884;2.258;2023-04-24T01:23:19;11.00;99.90
41058;DHT22;66768;48.884;2.258;2023-04-24T01:25:48;11.00;99.90
41058;DHT22;66768;48.884;2.258;2023-04-24T01:28:16;11.00;99.90
41058;DHT22;66768;48.884;2.258;2023-04-24T01:30:43;10.90;99.90
41058;DHT22;66768;48.884;2.258;2023-04-24T01:33:10;10.90;99.90
41058;DHT22;66768;48.884;2.258;2023-04-24T01:35:37;10.90;99.90
41058;DHT22;66768;48.884;2.258;2023-04-24T01:38:04;10.90;99.90
41058;DHT22;66768;48.884;2.258;2023-04-24T01:40:33;10.90;99.90
41058;DHT22;66768;48.884;2.258;2023-04-24T01:43:00;11.00;99.90
41058;DHT22;66768;48.884;2.258;2023-04-24T01:45:27;11.00;99.90
41058;DHT22;66768;48.884;2.258;2023-04-24T01:47:54;10.90;99.90
41058;DHT22;66768;48.884;2.258;2023-04-24T01:50:21;10.90;99.90
41058;DHT22;66768;48.884;2.258;2023-04-24T01:52:47;10.90;99.90
41058;DHT22;66768;48.884;2.258;2023-04-24T01:55:14;10.90;99.90
41058;DHT22;66768;48.884;2.258;2023-04-24T01:57:43;10.90;99.90
41058;DHT22;66768;48.884;2.258;2023-04-24T02:00:10;11.00;99.90
41058;DHT22;66768;48.884;2.258;2023-04-24T02:02:38;11.00;99.90
41058;DHT22;66768;48.884;2.258;2023-04-24T02:05:06;11.00;99.90
41058;DHT22;66768;48.884;2.258;2023-04-24T02:07:33;10.90;99.90
41058;DHT22;66768;48.884;2.258;2023-04-24T02:10:00;10.90;99.90
41058;DHT22;66768;48.884;2.258;2023-04-24T02:12:27;10.90;99.90
41058;DHT22;66768;48.884;2.258;2023-04-24T02:14:55;10.90;99.90
41058;DHT22;66768;48.884;2.258;2023-04-24T02:17:22;10.90;99.90
41058;DHT22;66768;48.884;2.258;2023-04-24T02:19:49;10.90;99.90
41058;DHT22;66768;48.884;2.258;2023-04-24T02:22:16;10.90;99.90
41058;DHT22;66768;48.884;2.258;2023-04-24T02:24:43;10.90;99.90
41058;DHT22;66768;48.884;2.258;2023-04-24T02:27:10;10.90;99.90
41058;DHT22;66768;48.884;2.258;2023-04-24T02:29:37;10.90;99.90
41058;DHT22;66768;48.884;2.258;2023-04-24T02:32:05;10.90;99.90
41058;DHT22;66768;48.884;2.258;2023-04-24T02:34:32;10.90;99.90
41058;DHT22;66768;48.884;2.258;2023-04-24T02:36:59;10.90;99.90
41058;DHT22;66768;48.884;2.258;2023-04-24T02:39:25;10.90;99.90
41058;DHT22;66768;48.884;2.258;2023-04-24T02:41:52;10.90;99.90
41058;DHT22;66768;48.884;2.258;2023-04-24T02:44:19;10.90;99.90
41058;DHT22;66768;48.884;2.258;2023-04-24T02:46:47;10.90;99.90
41058;DHT22;66768;48.884;2.258;2023-04-24T02:49:15;10.90;99.90
41058;DHT22;66768;48.884;2.258;2023-04-24T02:51:42;10.90;99.90
41058;DHT22;66768;48.884;2.258;2023-04-24T02:54:09;10.90;99.90
41058;DHT22;66768;48.884;2.258;2023-04-24T02:56:36;10.90;99.90
41058;DHT22;66768;48.884;2.258;2023-04-24T02:59:03;10.90;99.90
41058;DHT22;66768;48.884;2.258;2023-04-24T03:01:30;10.90;99.90
41058;DHT22;66768;48.884;2.258;2023-04-24T03:03:57;10.90;99.90
41058;DHT22;66768;48.884;2.258;2023-04-24T03:06:25;10.90;99.90
41058;DHT22;66768;48.884;2.258;2023-04-24T03:08:52;10.90;99.90
41058;DHT22;66768;48.884;2.258;2023-04-24T03:11:20;10.90;99.90
41058;DHT22;66768;48.884;2.258;2023-04-24T03:13:46;10.90;99.90
41058;DHT22;66768;48.884;2.258;2023-04-24T03:16:13;10.90;99.90
41058;DHT22;66768;48.884;2.258;2023-04-24T03:18:40;10.80;99.90
41058;DHT22;66768;48.884;2.258;2023-04-24T03:21:07;10.90;99.90
41058;DHT22;66768;48.884;2.258;2023-04-24T03:23:35;10.90;99.90
41058;DHT22;66768;48.884;2.258;2023-04-24T03:26:02;10.80;99.90
41058;DHT22;66768;48.884;2.258;2023-04-24T03:28:29;10.80;99.90
41058;DHT22;66768;48.884;2.258;2023-04-24T03:30:56;10.80;99.90
41058;DHT22;66768;48.884;2.258;2023-04-24T03:33:23;10.80;99.90
41058;DHT22;66768;48.884;2.258;2023-04-24T03:35:50;10.80;99.90
41058;DHT22;66768;48.884;2.258;2023-04-24T03:38:16;10.80;99.90
41058;DHT22;66768;48.884;2.258;2023-04-24T03:40:45;10.70;99.90
41058;DHT22;66768;48.884;2.258;2023-04-24T03:43:11;10.80;99.90
41058;DHT22;66768;48.884;2.258;2023-04-24T03:45:38;10.80;99.90
41058;DHT22;66768;48.884;2.258;2023-04-24T03:48:05;10.80;99.90
41058;DHT22;66768;48.884;2.258;2023-04-24T03:50:33;10.80;99.90
41058;DHT22;66768;48.884;2.258;2023-04-24T03:52:59;10.80;99.90
41058;DHT22;66768;48.884;2.258;2023-04-24T03:55:26;10.80;99.90
41058;DHT22;66768;48.884;2.258;2023-04-24T03:57:54;10.80;99.90
41058;DHT22;66768;48.884;2.258;2023-04-24T04:00:21;10.80;99.90
41058;DHT22;66768;48.884;2.258;2023-04-24T04:02:48;10.80;99.90
41058;DHT22;66768;48.884;2.258;2023-04-24T04:05:15;10.70;99.90
41058;DHT22;66768;48.884;2.258;2023-04-24T04:07:42;10.70;99.90
41058;DHT22;66768;48.884;2.258;2023-04-24T04:10:11;10.70;99.90
41058;DHT22;66768;48.884;2.258;2023-04-24T04:12:38;10.80;99.90
41058;DHT22;66768;48.884;2.258;2023-04-24T04:15:07;10.70;99.90
41058;DHT22;66768;48.884;2.258;2023-04-24T04:17:34;10.70;99.90
41058;DHT22;66768;48.884;2.258;2023-04-24T04:20:01;10.70;99.90
41058;DHT22;66768;48.884;2.258;2023-04-24T04:22:31;10.70;99.90
41058;DHT22;66768;48.884;2.258;2023-04-24T04:24:58;10.70;99.90
41058;DHT22;66768;48.884;2.258;2023-04-24T04:27:25;10.70;99.90
41058;DHT22;66768;48.884;2.258;2023-04-24T04:29:54;10.70;99.90
41058;DHT22;66768;48.884;2.258;2023-04-24T04:32:23;10.70;99.90
41058;DHT22;66768;48.884;2.258;2023-04-24T04:34:50;10.70;99.90
41058;DHT22;66768;48.884;2.258;2023-04-24T04:37:18;10.70;99.90
41058;DHT22;66768;48.884;2.258;2023-04-24T04:39:46;10.80;99.90
41058;DHT22;66768;48.884;2.258;2023-04-24T04:42:13;10.80;99.90
41058;DHT22;66768;48.884;2.258;2023-04-24T04:44:41;10.80;99.90
41058;DHT22;66768;48.884;2.258;2023-04-24T04:47:08;10.80;99.90
41058;DHT22;66768;48.884;2.258;2023-04-24T04:49:37;10.90;99.90
41058;DHT22;66768;48.884;2.258;2023-04-24T04:52:05;10.80;99.90
41058;DHT22;66768;48.884;2.258;2023-04-24T04:54:31;10.80;99.90
41058;DHT22;66768;48.884;2.258;2023-04-24T04:56:58;10.90;99.90
41058;DHT22;66768;48.884;2.258;2023-04-24T04:59:26;10.80;99.90
41058;DHT22;66768;48.884;2.258;2023-04-24T05:01:52;10.80;99.90
41058;DHT22;66768;48.884;2.258;2023-04-24T05:04:19;10.90;99.90
41058;DHT22;66768;48.884;2.258;2023-04-24T05:06:47;10.80;99.90
41058;DHT22;66768;48.884;2.258;2023-04-24T05:09:16;10.80;99.90
41058;DHT22;66768;48.884;2.258;2023-04-24T05:11:43;10.80;99.90
41058;DHT22;66768;48.884;2.258;2023-04-24T05:14:10;10.90;99.90
41058;DHT22;66768;48.884;2.258;2023-04-24T05:16:38;10.90;99.90
41058;DHT22;66768;48.884;2.258;2023-04-24T05:19:05;10.80;99.90
41058;DHT22;66768;48.884;2.258;2023-04-24T05:21:32;10.90;99.90
41058;DHT22;66768;48.884;2.258;2023-04-24T05:24:00;10.90;99.90
41058;DHT22;66768;48.884;2.258;2023-04-24T05:26:27;10.90;99.90
41058;DHT22;66768;48.884;2.258;2023-04-24T05:28:54;10.90;99.90
41058;DHT22;66768;48.884;2.258;2023-04-24T05:31:21;10.90;99.90
41058;DHT22;66768;48.884;2.258;2023-04-24T05:33:48;10.90;99.90
41058;DHT22;66768;48.884;2.258;2023-04-24T05:36:15;10.90;99.90
41058;DHT22;66768;48.884;2.258;2023-04-24T05:38:42;10.90;99.90
41058;DHT22;66768;48.884;2.258;2023-04-24T05:41:10;10.90;99.90
41058;DHT22;66768;48.884;2.258;2023-04-24T05:43:37;10.90;99.90
41058;DHT22;66768;48.884;2.258;2023-04-24T05:46:04;11.00;99.90
41058;DHT22;66768;48.884;2.258;2023-04-24T05:48:31;11.00;99.90
41058;DHT22;66768;48.884;2.258;2023-04-24T05:50:58;11.00;99.90
41058;DHT22;66768;48.884;2.258;2023-04-24T05:53:25;11.00;99.90
41058;DHT22;66768;48.884;2.258;2023-04-24T05:55:52;11.10;99.90
41058;DHT22;66768;48.884;2.258;2023-04-24T05:58:20;11.10;99.90
41058;DHT22;66768;48.884;2.258;2023-04-24T06:00:47;11.10;99.90
41058;DHT22;66768;48.884;2.258;2023-04-24T06:03:15;11.10;99.90
41058;DHT22;66768;48.884;2.258;2023-04-24T06:05:42;11.10;99.90
41058;DHT22;66768;48.884;2.258;2023-04-24T06:08:09;11.20;99.90
41058;DHT22;66768;48.884;2.258;2023-04-24T06:10:36;11.20;99.90
41058;DHT22;66768;48.884;2.258;2023-04-24T06:13:03;11.20;99.90
41058;DHT22;66768;48.884;2.258;2023-04-24T06:15:31;11.20;99.90
41058;DHT22;66768;48.884;2.258;2023-04-24T06:17:58;11.20;99.90
41058;DHT22;66768;48.884;2.258;2023-04-24T06:20:25;11.20;99.90
41058;DHT22;66768;48.884;2.258;2023-04-24T06:22:52;11.20;99.90
41058;DHT22;66768;48.884;2.258;2023-04-24T06:25:19;11.20;99.90
41058;DHT22;66768;48.884;2.258;2023-04-24T06:27:46;11.20;99.90
41058;DHT22;66768;48.884;2.258;2023-04-24T06:30:13;11.20;99.90
41058;DHT22;66768;48.884;2.258;2023-04-24T06:32:41;11.30;99.90
41058;DHT22;66768;48.884;2.258;2023-04-24T06:35:08;11.30;99.90
41058;DHT22;66768;48.884;2.258;2023-04-24T06:37:37;11.30;99.90
41058;DHT22;66768;48.884;2.258;2023-04-24T06:40:04;11.40;99.90
41058;DHT22;66768;48.884;2.258;2023-04-24T06:42:32;11.40;99.90
41058;DHT22;66768;48.884;2.258;2023-04-24T06:44:58;11.50;99.90
41058;DHT22;66768;48.884;2.258;2023-04-24T06:47:25;11.60;99.90
41058;DHT22;66768;48.884;2.258;2023-04-24T06:49:54;11.70;99.90
41058;DHT22;66768;48.884;2.258;2023-04-24T06:52:21;11.80;99.90
41058;DHT22;66768;48.884;2.258;2023-04-24T06:54:48;11.90;99.90
41058;DHT22;66768;48.884;2.258;2023-04-24T06:57:15;12.00;99.90
41058;DHT22;66768;48.884;2.258;2023-04-24T06:59:42;12.00;99.90
41058;DHT22;66768;48.884;2.258;2023-04-24T07:02:09;12.10;99.90
41058;DHT22;66768;48.884;2.258;2023-04-24T07:04:36;12.20;99.90
41058;DHT22;66768;48.884;2.258;2023-04-24T07:07:04;12.20;99.90
41058;DHT22;66768;48.884;2.258;2023-04-24T07:09:32;12.30;99.90
41058;DHT22;66768;48.884;2.258;2023-04-24T07:12:00;12.30;99.90
41058;DHT22;66768;48.884;2.258;2023-04-24T07:14:27;12.30;99.90
41058;DHT22;66768;48.884;2.258;2023-04-24T07:16:54;12.30;99.90
41058;DHT22;66768;48.884;2.258;2023-04-24T07:19:22;12.10;99.90
41058;DHT22;66768;48.884;2.258;2023-04-24T07:21:49;12.20;99.90
41058;DHT22;66768;48.884;2.258;2023-04-24T07:24:17;12.20;99.90
41058;DHT22;66768;48.884;2.258;2023-04-24T07:26:44;12.20;99.90
41058;DHT22;66768;48.884;2.258;2023-04-24T07:29:12;12.20;99.90
41058;DHT22;66768;48.884;2.258;2023-04-24T07:31:39;12.20;99.90
41058;DHT22;66768;48.884;2.258;2023-04-24T07:34:07;12.20;99.90
41058;DHT22;66768;48.884;2.258;2023-04-24T07:36:34;12.20;99.90
41058;DHT22;66768;48.884;2.258;2023-04-24T07:39:00;12.20;99.90
41058;DHT22;66768;48.884;2.258;2023-04-24T07:41:29;12.20;99.90
41058;DHT22;66768;48.884;2.258;2023-04-24T07:43:56;12.30;99.90
41058;DHT22;66768;48.884;2.258;2023-04-24T07:46:23;12.30;99.90
41058;DHT22;66768;48.884;2.258;2023-04-24T07:48:50;12.30;99.90
41058;DHT22;66768;48.884;2.258;2023-04-24T07:51:17;12.20;99.90
41058;DHT22;66768;48.884;2.258;2023-04-24T07:53:44;12.30;99.90
41058;DHT22;66768;48.884;2.258;2023-04-24T07:56:11;12.40;99.90
41058;DHT22;66768;48.884;2.258;2023-04-24T07:58:39;12.40;99.90
41058;DHT22;66768;48.884;2.258;2023-04-24T08:01:06;12.30;99.90
41058;DHT22;66768;48.884;2.258;2023-04-24T08:03:33;12.30;99.90
41058;DHT22;66768;48.884;2.258;2023-04-24T08:06:00;12.20;99.90
41058;DHT22;66768;48.884;2.258;2023-04-24T08:08:27;12.20;99.90
41058;DHT22;66768;48.884;2.258;2023-04-24T08:10:55;12.30;99.90
41058;DHT22;66768;48.884;2.258;2023-04-24T08:13:22;12.40;99.90
41058;DHT22;66768;48.884;2.258;2023-04-24T08:15:50;12.40;99.90
41058;DHT22;66768;48.884;2.258;2023-04-24T08:18:17;12.50;99.90
41058;DHT22;66768;48.884;2.258;2023-04-24T08:20:43;12.50;99.90
41058;DHT22;66768;48.884;2.258;2023-04-24T08:23:11;12.70;99.90
41058;DHT22;66768;48.884;2.258;2023-04-24T08:25:37;12.80;99.90
41058;DHT22;66768;48.884;2.258;2023-04-24T08:28:06;13.00;99.90
41058;DHT22;66768;48.884;2.258;2023-04-24T08:30:33;13.10;99.90
41058;DHT22;66768;48.884;2.258;2023-04-24T08:33:01;13.20;99.90
41058;DHT22;66768;48.884;2.258;2023-04-24T08:35:28;13.30;99.90
41058;DHT22;66768;48.884;2.258;2023-04-24T08:37:55;13.30;99.90
41058;DHT22;66768;48.884;2.258;2023-04-24T08:40:27;13.40;99.90
41058;DHT22;66768;48.884;2.258;2023-04-24T08:42:55;13.40;99.90
41058;DHT22;66768;48.884;2.258;2023-04-24T08:45:23;13.40;99.90
41058;DHT22;66768;48.884;2.258;2023-04-24T08:47:52;13.40;99.90
41058;DHT22;66768;48.884;2.258;2023-04-24T08:50:20;13.30;99.90
41058;DHT22;66768;48.884;2.258;2023-04-24T08:52:49;13.30;99.90
41058;DHT22;66768;48.884;2.258;2023-04-24T08:55:18;13.30;99.90
41058;DHT22;66768;48.884;2.258;2023-04-24T08:57:48;13.20;99.90
41058;DHT22;66768;48.884;2.258;2023-04-24T09:00:17;13.20;99.90
41058;DHT22;66768;48.884;2.258;2023-04-24T09:02:45;13.20;99.90
41058;DHT22;66768;48.884;2.258;2023-04-24T09:05:14;13.30;99.90
41058;DHT22;66768;48.884;2.258;2023-04-24T09:07:45;13.30;99.90
41058;DHT22;66768;48.884;2.258;2023-04-24T09:10:16;13.20;99.90
41058;DHT22;66768;48.884;2.258;2023-04-24T09:12:44;13.30;99.90
41058;DHT22;66768;48.884;2.258;2023-04-24T09:15:11;13.20;99.90
41058;DHT22;66768;48.884;2.258;2023-04-24T09:17:39;13.20;99.90
41058;DHT22;66768;48.884;2.258;2023-04-24T09:20:06;13.20;99.90
41058;DHT22;66768;48.884;2.258;2023-04-24T09:22:34;13.20;99.90
41058;DHT22;66768;48.884;2.258;2023-04-24T09:25:06;13.30;99.90
41058;DHT22;66768;48.884;2.258;2023-04-24T09:27:35;13.30;99.90
41058;DHT22;66768;48.884;2.258;2023-04-24T09:30:02;13.30;99.90
41058;DHT22;66768;48.884;2.258;2023-04-24T09:32:29;13.40;99.90
41058;DHT22;66768;48.884;2.258;2023-04-24T09:35:08;13.40;99.90
41058;DHT22;66768;48.884;2.258;2023-04-24T09:37:36;13.40;99.90
41058;DHT22;66768;48.884;2.258;2023-04-24T09:40:16;13.50;99.90
41058;DHT22;66768;48.884;2.258;2023-04-24T09:42:51;13.50;99.90
41058;DHT22;66768;48.884;2.258;2023-04-24T09:45:18;13.50;99.90
41058;DHT22;66768;48.884;2.258;2023-04-24T09:47:45;13.60;99.90
41058;DHT22;66768;48.884;2.258;2023-04-24T09:50:14;13.60;99.90
41058;DHT22;66768;48.884;2.258;2023-04-24T09:52:43;13.60;99.90
41058;DHT22;66768;48.884;2.258;2023-04-24T09:55:19;13.60;99.90
41058;DHT22;66768;48.884;2.258;2023-04-24T09:57:50;13.60;99.90
41058;DHT22;66768;48.884;2.258;2023-04-24T10:00:25;13.70;99.90
41058;DHT22;66768;48.884;2.258;2023-04-24T10:02:57;13.80;99.90
41058;DHT22;66768;48.884;2.258;2023-04-24T10:05:27;13.90;99.90
41058;DHT22;66768;48.884;2.258;2023-04-24T10:07:57;14.00;99.90
41058;DHT22;66768;48.884;2.258;2023-04-24T10:10:25;14.10;99.90
41058;DHT22;66768;48.884;2.258;2023-04-24T10:12:53;14.30;99.90
41058;DHT22;66768;48.884;2.258;2023-04-24T10:15:21;14.40;99.90
41058;DHT22;66768;48.884;2.258;2023-04-24T10:17:49;14.50;99.90
41058;DHT22;66768;48.884;2.258;2023-04-24T10:20:19;14.50;99.90
41058;DHT22;66768;48.884;2.258;2023-04-24T10:22:48;14.50;99.90
41058;DHT22;66768;48.884;2.258;2023-04-24T10:25:17;14.60;99.90
41058;DHT22;66768;48.884;2.258;2023-04-24T10:27:47;14.60;99.90
41058;DHT22;66768;48.884;2.258;2023-04-24T10:30:15;14.60;99.90
41058;DHT22;66768;48.884;2.258;2023-04-24T10:32:42;14.50;99.90
41058;DHT22;66768;48.884;2.258;2023-04-24T10:35:10;14.50;99.90
41058;DHT22;66768;48.884;2.258;2023-04-24T10:37:41;14.60;99.90
41058;DHT22;66768;48.884;2.258;2023-04-24T10:40:11;14.60;99.90
41058;DHT22;66768;48.884;2.258;2023-04-24T10:42:40;14.60;99.90
41058;DHT22;66768;48.884;2.258;2023-04-24T10:45:17;14.50;99.90
41058;DHT22;66768;48.884;2.258;2023-04-24T10:48:02;14.60;99.90
41058;DHT22;66768;48.884;2.258;2023-04-24T10:50:43;14.60;99.90
41058;DHT22;66768;48.884;2.258;2023-04-24T10:53:16;14.70;99.90
41058;DHT22;66768;48.884;2.258;2023-04-24T10:55:45;14.70;99.90
41058;DHT22;66768;48.884;2.258;2023-04-24T10:58:12;14.70;99.90
41058;DHT22;66768;48.884;2.258;2023-04-24T11:00:42;14.70;99.90
41058;DHT22;66768;48.884;2.258;2023-04-24T11:03:23;14.80;99.90
41058;DHT22;66768;48.884;2.258;2023-04-24T11:05:53;14.70;99.90
41058;DHT22;66768;48.884;2.258;2023-04-24T11:08:28;14.70;99.90
41058;DHT22;66768;48.884;2.258;2023-04-24T11:10:57;14.70;99.90
41058;DHT22;66768;48.884;2.258;2023-04-24T11:13:24;14.80;99.90
41058;DHT22;66768;48.884;2.258;2023-04-24T11:16:21;14.80;99.90
41058;DHT22;66768;48.884;2.258;2023-04-24T11:18:57;14.90;99.90
41058;DHT22;66768;48.884;2.258;2023-04-24T11:21:31;14.90;99.90
41058;DHT22;66768;48.884;2.258;2023-04-24T11:23:58;15.00;99.90
41058;DHT22;66768;48.884;2.258;2023-04-24T11:26:25;15.10;99.90
41058;DHT22;66768;48.884;2.258;2023-04-24T11:29:06;15.10;99.90
41058;DHT22;66768;48.884;2.258;2023-04-24T11:31:37;15.10;99.90
41058;DHT22;66768;48.884;2.258;2023-04-24T11:34:08;15.00;99.90
41058;DHT22;66768;48.884;2.258;2023-04-24T11:36:36;15.10;99.90
41058;DHT22;66768;48.884;2.258;2023-04-24T11:39:03;15.10;99.90
41058;DHT22;66768;48.884;2.258;2023-04-24T11:41:30;15.10;99.90
41058;DHT22;66768;48.884;2.258;2023-04-24T11:43:58;15.30;99.90
41058;DHT22;66768;48.884;2.258;2023-04-24T11:46:27;15.20;99.90
41058;DHT22;66768;48.884;2.258;2023-04-24T11:48:56;15.30;99.90
41058;DHT22;66768;48.884;2.258;2023-04-24T11:51:23;15.40;99.70
41058;DHT22;66768;48.884;2.258;2023-04-24T11:53:50;15.30;99.50
41058;DHT22;66768;48.884;2.258;2023-04-24T11:56:17;15.30;99.30
41058;DHT22;66768;48.884;2.258;2023-04-24T11:58:45;15.30;99.40
41058;DHT22;66768;48.884;2.258;2023-04-24T12:01:13;15.30;99.60
41058;DHT22;66768;48.884;2.258;2023-04-24T12:03:40;15.40;99.40
41058;DHT22;66768;48.884;2.258;2023-04-24T12:06:11;15.50;99.50
41058;DHT22;66768;48.884;2.258;2023-04-24T12:08:39;15.60;98.20
41058;DHT22;66768;48.884;2.258;2023-04-24T12:11:07;15.70;98.50
41058;DHT22;66768;48.884;2.258;2023-04-24T12:13:34;15.60;97.90
41058;DHT22;66768;48.884;2.258;2023-04-24T12:16:03;15.50;97.20
41058;DHT22;66768;48.884;2.258;2023-04-24T12:18:30;15.50;98.00
41058;DHT22;66768;48.884;2.258;2023-04-24T12:21:28;15.40;98.20
41058;DHT22;66768;48.884;2.258;2023-04-24T12:23:57;15.30;98.20
41058;DHT22;66768;48.884;2.258;2023-04-24T12:26:24;15.20;97.90
41058;DHT22;66768;48.884;2.258;2023-04-24T12:28:51;15.20;97.80
41058;DHT22;66768;48.884;2.258;2023-04-24T12:31:21;15.20;97.80
41058;DHT22;66768;48.884;2.258;2023-04-24T12:33:48;15.20;97.60
41058;DHT22;66768;48.884;2.258;2023-04-24T12:36:14;15.30;97.10
41058;DHT22;66768;48.884;2.258;2023-04-24T12:38:44;15.30;96.70
41058;DHT22;66768;48.884;2.258;2023-04-24T12:41:13;15.30;97.00
41058;DHT22;66768;48.884;2.258;2023-04-24T12:43:51;15.40;96.90
41058;DHT22;66768;48.884;2.258;2023-04-24T12:46:18;15.30;96.80
41058;DHT22;66768;48.884;2.258;2023-04-24T12:48:45;15.30;96.40
41058;DHT22;66768;48.884;2.258;2023-04-24T12:51:12;15.30;94.90
41058;DHT22;66768;48.884;2.258;2023-04-24T12:53:39;15.30;94.40
41058;DHT22;66768;48.884;2.258;2023-04-24T12:56:07;15.30;94.70
41058;DHT22;66768;48.884;2.258;2023-04-24T12:58:34;15.50;95.30
41058;DHT22;66768;48.884;2.258;2023-04-24T13:01:01;15.60;95.70
41058;DHT22;66768;48.884;2.258;2023-04-24T13:03:28;15.60;95.10
41058;DHT22;66768;48.884;2.258;2023-04-24T13:05:54;15.60;95.00
41058;DHT22;66768;48.884;2.258;2023-04-24T13:08:21;15.60;94.90
41058;DHT22;66768;48.884;2.258;2023-04-24T13:10:48;15.50;95.10
41058;DHT22;66768;48.884;2.258;2023-04-24T13:13:17;15.50;95.10
41058;DHT22;66768;48.884;2.258;2023-04-24T13:15:44;15.50;95.60
41058;DHT22;66768;48.884;2.258;2023-04-24T13:18:11;15.40;95.90
41058;DHT22;66768;48.884;2.258;2023-04-24T13:20:38;15.40;96.40
41058;DHT22;66768;48.884;2.258;2023-04-24T13:23:06;15.40;96.70
41058;DHT22;66768;48.884;2.258;2023-04-24T13:25:35;15.30;96.10
41058;DHT22;66768;48.884;2.258;2023-04-24T13:28:04;15.30;96.80
41058;DHT22;66768;48.884;2.258;2023-04-24T13:30:33;15.20;96.00
41058;DHT22;66768;48.884;2.258;2023-04-24T13:33:00;15.20;95.70
41058;DHT22;66768;48.884;2.258;2023-04-24T13:35:26;15.20;95.30
41058;DHT22;66768;48.884;2.258;2023-04-24T13:37:53;15.30;95.10
41058;DHT22;66768;48.884;2.258;2023-04-24T13:40:20;15.30;94.70
41058;DHT22;66768;48.884;2.258;2023-04-24T13:42:47;15.40;94.70
41058;DHT22;66768;48.884;2.258;2023-04-24T13:45:14;15.40;94.00
41058;DHT22;66768;48.884;2.258;2023-04-24T13:47:42;15.50;93.90
41058;DHT22;66768;48.884;2.258;2023-04-24T13:50:09;15.50;93.20
41058;DHT22;66768;48.884;2.258;2023-04-24T13:52:36;15.50;93.00
41058;DHT22;66768;48.884;2.258;2023-04-24T13:55:04;15.50;93.00
41058;DHT22;66768;48.884;2.258;2023-04-24T13:57:31;15.50;93.10
41058;DHT22;66768;48.884;2.258;2023-04-24T13:59:58;15.50;92.90
41058;DHT22;66768;48.884;2.258;2023-04-24T14:02:26;15.50;93.20
41058;DHT22;66768;48.884;2.258;2023-04-24T14:04:55;15.50;93.20
41058;DHT22;66768;48.884;2.258;2023-04-24T14:07:21;15.50;93.10
41058;DHT22;66768;48.884;2.258;2023-04-24T14:09:48;15.50;93.00
41058;DHT22;66768;48.884;2.258;2023-04-24T14:12:16;15.50;92.90
41058;DHT22;66768;48.884;2.258;2023-04-24T14:14:45;15.50;92.90
41058;DHT22;66768;48.884;2.258;2023-04-24T14:17:12;15.50;93.10
41058;DHT22;66768;48.884;2.258;2023-04-24T14:19:39;15.60;93.50
41058;DHT22;66768;48.884;2.258;2023-04-24T14:22:07;15.70;93.70
41058;DHT22;66768;48.884;2.258;2023-04-24T14:24:34;15.70;93.60
41058;DHT22;66768;48.884;2.258;2023-04-24T14:27:01;15.70;93.70
41058;DHT22;66768;48.884;2.258;2023-04-24T14:29:28;15.70;94.00
41058;DHT22;66768;48.884;2.258;2023-04-24T14:31:55;15.80;94.50
41058;DHT22;66768;48.884;2.258;2023-04-24T14:34:22;15.90;95.00
41058;DHT22;66768;48.884;2.258;2023-04-24T14:36:49;15.90;93.90
41058;DHT22;66768;48.884;2.258;2023-04-24T14:39:17;15.90;93.70
41058;DHT22;66768;48.884;2.258;2023-04-24T14:41:44;15.80;92.70
41058;DHT22;66768;48.884;2.258;2023-04-24T14:44:11;15.80;92.50
41058;DHT22;66768;48.884;2.258;2023-04-24T14:46:38;15.80;92.30
41058;DHT22;66768;48.884;2.258;2023-04-24T14:49:05;15.80;92.20
41058;DHT22;66768;48.884;2.258;2023-04-24T14:51:35;15.90;92.10
41058;DHT22;66768;48.884;2.258;2023-04-24T14:54:02;15.80;91.80
41058;DHT22;66768;48.884;2.258;2023-04-24T14:56:30;15.90;92.20
41058;DHT22;66768;48.884;2.258;2023-04-24T14:58:57;15.80;92.30
41058;DHT22;66768;48.884;2.258;2023-04-24T15:01:24;15.70;92.50
41058;DHT22;66768;48.884;2.258;2023-04-24T15:03:51;15.70;92.80
41058;DHT22;66768;48.884;2.258;2023-04-24T15:06:18;15.60;93.30
41058;DHT22;66768;48.884;2.258;2023-04-24T15:08:45;15.50;93.60
41058;DHT22;66768;48.884;2.258;2023-04-24T15:11:12;15.40;93.40
41058;DHT22;66768;48.884;2.258;2023-04-24T15:13:40;15.30;93.50
41058;DHT22;66768;48.884;2.258;2023-04-24T15:16:07;15.20;93.60
41058;DHT22;66768;48.884;2.258;2023-04-24T15:18:35;15.10;93.70
41058;DHT22;66768;48.884;2.258;2023-04-24T15:21:02;15.10;93.90
41058;DHT22;66768;48.884;2.258;2023-04-24T15:23:29;15.00;94.50
41058;DHT22;66768;48.884;2.258;2023-04-24T15:25:56;15.00;95.10
41058;DHT22;66768;48.884;2.258;2023-04-24T15:28:23;15.00;94.20
41058;DHT22;66768;48.884;2.258;2023-04-24T15:30:52;15.00;94.10
41058;DHT22;66768;48.884;2.258;2023-04-24T15:33:19;15.00;93.80
41058;DHT22;66768;48.884;2.258;2023-04-24T15:35:46;15.10;94.40